sensor_id;sensor_type;location;lat;lon;timestamp;temperature;humidity
66013;DHT22;52783;50.502;8.190;2023-08-01T00:01:23;16.40;99.90
66013;DHT22;52783;50.502;8.190;2023-08-01T00:03:49;16.40;99.90
66013;DHT22;52783;50.502;8.190;2023-08-01T00:06:14;16.50;99.90
66013;DHT22;52783;50.502;8.190;2023-08-01T00:08:40;16.40;99.90
66013;DHT22;52783;50.502;8.190;2023-08-01T00:11:05;16.40;99.90
66013;DHT22;52783;50.502;8.190;2023-08-01T00:13:31;16.50;99.90
66013;DHT22;52783;50.502;8.190;2023-08-01T00:15:57;16.50;99.90
66013;DHT22;52783;50.502;8.190;2023-08-01T00:18:22;16.50;99.90
66013;DHT22;52783;50.502;8.190;2023-08-01T00:20:48;16.50;99.90
66013;DHT22;52783;50.502;8.190;2023-08-01T00:23:13;16.50;99.90
66013;DHT22;52783;50.502;8.190;2023-08-01T00:25:39;16.50;99.90
66013;DHT22;52783;50.502;8.190;2023-08-01T00:28:04;16.40;99.90
66013;DHT22;52783;50.502;8.190;2023-08-01T00:30:30;16.40;99.90
66013;DHT22;52783;50.502;8.190;2023-08-01T00:32:55;16.30;99.90
66013;DHT22;52783;50.502;8.190;2023-08-01T00:35:21;16.40;99.90
66013;DHT22;52783;50.502;8.190;2023-08-01T00:37:46;16.40;99.90
66013;DHT22;52783;50.502;8.190;2023-08-01T00:40:12;16.40;99.90
66013;DHT22;52783;50.502;8.190;2023-08-01T00:42:38;16.40;99.90
66013;DHT22;52783;50.502;8.190;2023-08-01T00:45:04;16.40;99.90
66013;DHT22;52783;50.502;8.190;2023-08-01T00:47:30;16.40;99.90
66013;DHT22;52783;50.502;8.190;2023-08-01T00:49:55;16.30;99.90
66013;DHT22;52783;50.502;8.190;2023-08-01T00:52:21;16.30;99.90
66013;DHT22;52783;50.502;8.190;2023-08-01T00:54:47;16.30;99.90
66013;DHT22;52783;50.502;8.190;2023-08-01T00:57:13;16.30;99.90
66013;DHT22;52783;50.502;8.190;2023-08-01T00:59:39;16.30;99.90
66013;DHT22;52783;50.502;8.190;2023-08-01T01:02:05;16.30;99.90
66013;DHT22;52783;50.502;8.190;2023-08-01T01:04:31;16.30;99.90
66013;DHT22;52783;50.502;8.190;2023-08-01T01:07:00;16.30;99.90
66013;DHT22;52783;50.502;8.190;2023-08-01T01:09:29;16.30;99.90
66013;DHT22;52783;50.502;8.190;2023-08-01T01:11:57;16.30;99.90
66013;DHT22;52783;50.502;8.190;2023-08-01T01:14:22;16.30;99.90
66013;DHT22;52783;50.502;8.190;2023-08-01T01:16:48;16.30;99.90
66013;DHT22;52783;50.502;8.190;2023-08-01T01:19:13;16.30;99.90
66013;DHT22;52783;50.502;8.190;2023-08-01T01:21:40;16.40;99.90
66013;DHT22;52783;50.502;8.190;2023-08-01T01:24:08;16.40;99.90
66013;DHT22;52783;50.502;8.190;2023-08-01T01:26:35;16.40;99.90
66013;DHT22;52783;50.502;8.190;2023-08-01T01:29:03;16.40;99.90
66013;DHT22;52783;50.502;8.190;2023-08-01T01:31:30;16.50;99.90
66013;DHT22;52783;50.502;8.190;2023-08-01T01:33:56;16.40;99.90
66013;DHT22;52783;50.502;8.190;2023-08-01T01:36:22;16.40;99.90
66013;DHT22;52783;50.502;8.190;2023-08-01T01:38:47;16.40;99.90
66013;DHT22;52783;50.502;8.190;2023-08-01T01:41:13;16.40;99.90
66013;DHT22;52783;50.502;8.190;2023-08-01T01:43:38;16.40;99.90
66013;DHT22;52783;50.502;8.190;2023-08-01T01:46:04;16.40;99.90
66013;DHT22;52783;50.502;8.190;2023-08-01T01:48:29;16.40;99.90
66013;DHT22;52783;50.502;8.190;2023-08-01T01:50:55;16.40;99.90
66013;DHT22;52783;50.502;8.190;2023-08-01T01:53:20;16.50;99.90
66013;DHT22;52783;50.502;8.190;2023-08-01T01:55:46;16.50;99.90
66013;DHT22;52783;50.502;8.190;2023-08-01T01:58:11;16.50;99.90
66013;DHT22;52783;50.502;8.190;2023-08-01T02:00:37;16.50;99.90
66013;DHT22;52783;50.502;8.190;2023-08-01T02:03:03;16.50;99.90
66013;DHT22;52783;50.502;8.190;2023-08-01T02:05:30;16.50;99.90
66013;DHT22;52783;50.502;8.190;2023-08-01T02:07:56;16.50;99.90
66013;DHT22;52783;50.502;8.190;2023-08-01T02:10:21;16.50;99.90
66013;DHT22;52783;50.502;8.190;2023-08-01T02:12:47;16.50;99.90
66013;DHT22;52783;50.502;8.190;2023-08-01T02:15:12;16.50;99.90
66013;DHT22;52783;50.502;8.190;2023-08-01T02:17:39;16.50;99.90
66013;DHT22;52783;50.502;8.190;2023-08-01T02:20:05;16.50;99.90
66013;DHT22;52783;50.502;8.190;2023-08-01T02:22:30;16.50;99.90
66013;DHT22;52783;50.502;8.190;2023-08-01T02:24:56;16.60;99.90
66013;DHT22;52783;50.502;8.190;2023-08-01T02:30:43;16.60;99.90
66013;DHT22;52783;50.502;8.190;2023-08-01T02:33:09;16.60;99.90
66013;DHT22;52783;50.502;8.190;2023-08-01T02:35:35;16.60;99.90
66013;DHT22;52783;50.502;8.190;2023-08-01T02:38:00;16.60;99.90
66013;DHT22;52783;50.502;8.190;2023-08-01T02:40:28;16.70;99.90
66013;DHT22;52783;50.502;8.190;2023-08-01T02:42:53;16.70;99.90
66013;DHT22;52783;50.502;8.190;2023-08-01T02:45:19;16.70;99.90
66013;DHT22;52783;50.502;8.190;2023-08-01T02:47:44;16.70;99.90
66013;DHT22;52783;50.502;8.190;2023-08-01T02:50:10;16.70;99.90
66013;DHT22;52783;50.502;8.190;2023-08-01T02:52:35;16.70;99.90
66013;DHT22;52783;50.502;8.190;2023-08-01T02:55:01;16.70;99.90
66013;DHT22;52783;50.502;8.190;2023-08-01T02:57:26;16.70;99.90
66013;DHT22;52783;50.502;8.190;2023-08-01T02:59:52;16.60;99.90
66013;DHT22;52783;50.502;8.190;2023-08-01T03:02:19;16.60;99.90
66013;DHT22;52783;50.502;8.190;2023-08-01T03:04:44;16.60;99.90
66013;DHT22;52783;50.502;8.190;2023-08-01T03:07:10;16.60;99.90
66013;DHT22;52783;50.502;8.190;2023-08-01T03:09:35;16.60;99.90
66013;DHT22;52783;50.502;8.190;2023-08-01T03:12:01;16.60;99.90
66013;DHT22;52783;50.502;8.190;2023-08-01T03:14:26;16.60;99.90
66013;DHT22;52783;50.502;8.190;2023-08-01T03:16:52;16.60;99.90
66013;DHT22;52783;50.502;8.190;2023-08-01T03:19:17;16.60;99.90
66013;DHT22;52783;50.502;8.190;2023-08-01T03:21:43;16.60;99.90
66013;DHT22;52783;50.502;8.190;2023-08-01T03:24:09;16.60;99.90
66013;DHT22;52783;50.502;8.190;2023-08-01T03:26:35;16.70;99.90
66013;DHT22;52783;50.502;8.190;2023-08-01T03:29:01;16.70;99.90
66013;DHT22;52783;50.502;8.190;2023-08-01T03:31:27;16.70;99.90
66013;DHT22;52783;50.502;8.190;2023-08-01T03:33:53;16.70;99.90
66013;DHT22;52783;50.502;8.190;2023-08-01T03:36:18;16.80;99.90
66013;DHT22;52783;50.502;8.190;2023-08-01T03:38:44;16.70;99.90
66013;DHT22;52783;50.502;8.190;2023-08-01T03:41:10;16.70;99.90
66013;DHT22;52783;50.502;8.190;2023-08-01T03:43:36;16.80;99.90
66013;DHT22;52783;50.502;8.190;2023-08-01T03:46:02;16.80;99.90
66013;DHT22;52783;50.502;8.190;2023-08-01T03:48:28;16.80;99.90
66013;DHT22;52783;50.502;8.190;2023-08-01T03:50:54;16.80;99.90
66013;DHT22;52783;50.502;8.190;2023-08-01T03:53:19;16.80;99.90
66013;DHT22;52783;50.502;8.190;2023-08-01T03:55:47;16.80;99.90
66013;DHT22;52783;50.502;8.190;2023-08-01T03:58:13;16.80;99.90
66013;DHT22;52783;50.502;8.190;2023-08-01T04:00:38;16.80;99.90
66013;DHT22;52783;50.502;8.190;2023-08-01T04:03:04;16.90;99.90
66013;DHT22;52783;50.502;8.190;2023-08-01T04:05:29;16.90;99.90
66013;DHT22;52783;50.502;8.190;2023-08-01T04:07:55;16.90;99.90
66013;DHT22;52783;50.502;8.190;2023-08-01T04:10:21;16.90;99.90
66013;DHT22;52783;50.502;8.190;2023-08-01T04:12:47;16.90;99.90
66013;DHT22;52783;50.502;8.190;2023-08-01T04:15:13;16.90;99.90
66013;DHT22;52783;50.502;8.190;2023-08-01T04:17:38;16.80;99.90
66013;DHT22;52783;50.502;8.190;2023-08-01T04:20:04;16.80;99.90
66013;DHT22;52783;50.502;8.190;2023-08-01T04:22:30;16.80;99.90
66013;DHT22;52783;50.502;8.190;2023-08-01T04:24:55;16.80;99.90
66013;DHT22;52783;50.502;8.190;2023-08-01T04:27:21;16.80;99.90
66013;DHT22;52783;50.502;8.190;2023-08-01T04:29:47;16.70;99.90
66013;DHT22;52783;50.502;8.190;2023-08-01T04:32:13;16.70;99.90
66013;DHT22;52783;50.502;8.190;2023-08-01T04:34:40;16.80;99.90
66013;DHT22;52783;50.502;8.190;2023-08-01T04:37:06;16.80;99.90
66013;DHT22;52783;50.502;8.190;2023-08-01T04:39:32;16.80;99.90
66013;DHT22;52783;50.502;8.190;2023-08-01T04:41:57;16.80;99.90
66013;DHT22;52783;50.502;8.190;2023-08-01T04:44:23;16.80;99.90
66013;DHT22;52783;50.502;8.190;2023-08-01T04:46:48;16.80;99.90
66013;DHT22;52783;50.502;8.190;2023-08-01T04:49:14;16.80;99.90
66013;DHT22;52783;50.502;8.190;2023-08-01T04:51:40;16.80;99.90
66013;DHT22;52783;50.502;8.190;2023-08-01T04:54:05;16.80;99.90
66013;DHT22;52783;50.502;8.190;2023-08-01T04:56:31;16.80;99.90
66013;DHT22;52783;50.502;8.190;2023-08-01T04:58:56;16.70;99.90
66013;DHT22;52783;50.502;8.190;2023-08-01T05:01:22;16.80;99.90
66013;DHT22;52783;50.502;8.190;2023-08-01T05:03:47;16.70;99.90
66013;DHT22;52783;50.502;8.190;2023-08-01T05:06:13;16.70;99.90
66013;DHT22;52783;50.502;8.190;2023-08-01T05:08:38;16.70;99.90
66013;DHT22;52783;50.502;8.190;2023-08-01T05:11:04;16.70;99.90
66013;DHT22;52783;50.502;8.190;2023-08-01T05:13:29;16.60;99.90
66013;DHT22;52783;50.502;8.190;2023-08-01T05:15:55;16.60;99.90
66013;DHT22;52783;50.502;8.190;2023-08-01T05:18:21;16.40;99.90
66013;DHT22;52783;50.502;8.190;2023-08-01T05:20:46;16.20;99.90
66013;DHT22;52783;50.502;8.190;2023-08-01T05:23:12;16.20;99.90
66013;DHT22;52783;50.502;8.190;2023-08-01T05:25:37;16.10;99.90
66013;DHT22;52783;50.502;8.190;2023-08-01T05:28:03;16.10;99.90
66013;DHT22;52783;50.502;8.190;2023-08-01T05:30:28;16.20;99.90
66013;DHT22;52783;50.502;8.190;2023-08-01T05:32:54;16.00;99.90
66013;DHT22;52783;50.502;8.190;2023-08-01T05:35:20;16.10;99.90
66013;DHT22;52783;50.502;8.190;2023-08-01T05:37:46;16.00;99.90
66013;DHT22;52783;50.502;8.190;2023-08-01T05:40:12;16.00;99.90
66013;DHT22;52783;50.502;8.190;2023-08-01T05:42:37;15.90;99.90
66013;DHT22;52783;50.502;8.190;2023-08-01T05:45:03;15.90;99.90
66013;DHT22;52783;50.502;8.190;2023-08-01T05:47:30;15.90;99.90
66013;DHT22;52783;50.502;8.190;2023-08-01T05:49:55;15.90;99.90
66013;DHT22;52783;50.502;8.190;2023-08-01T05:52:21;16.00;99.90
66013;DHT22;52783;50.502;8.190;2023-08-01T05:54:46;16.00;99.90
66013;DHT22;52783;50.502;8.190;2023-08-01T05:57:12;16.20;99.90
66013;DHT22;52783;50.502;8.190;2023-08-01T05:59:38;16.10;99.90
66013;DHT22;52783;50.502;8.190;2023-08-01T06:02:03;16.00;99.90
66013;DHT22;52783;50.502;8.190;2023-08-01T06:04:29;16.00;99.90
66013;DHT22;52783;50.502;8.190;2023-08-01T06:06:54;16.00;99.90
66013;DHT22;52783;50.502;8.190;2023-08-01T06:09:20;16.00;99.90
66013;DHT22;52783;50.502;8.190;2023-08-01T06:11:45;16.00;99.90
66013;DHT22;52783;50.502;8.190;2023-08-01T06:14:11;16.10;99.90
66013;DHT22;52783;50.502;8.190;2023-08-01T06:16:36;16.20;99.90
66013;DHT22;52783;50.502;8.190;2023-08-01T06:19:02;16.20;99.90
66013;DHT22;52783;50.502;8.190;2023-08-01T06:21:28;16.20;99.90
66013;DHT22;52783;50.502;8.190;2023-08-01T06:23:54;16.30;99.90
66013;DHT22;52783;50.502;8.190;2023-08-01T06:26:19;16.50;99.90
66013;DHT22;52783;50.502;8.190;2023-08-01T06:28:45;16.50;99.90
66013;DHT22;52783;50.502;8.190;2023-08-01T06:31:10;16.50;99.90
66013;DHT22;52783;50.502;8.190;2023-08-01T06:33:36;16.40;99.90
66013;DHT22;52783;50.502;8.190;2023-08-01T06:36:01;16.30;99.90
66013;DHT22;52783;50.502;8.190;2023-08-01T06:38:27;16.70;99.90
66013;DHT22;52783;50.502;8.190;2023-08-01T06:40:52;16.80;99.90
66013;DHT22;52783;50.502;8.190;2023-08-01T06:43:18;16.70;99.90
66013;DHT22;52783;50.502;8.190;2023-08-01T06:45:44;17.00;99.90
66013;DHT22;52783;50.502;8.190;2023-08-01T06:48:09;17.00;99.90
66013;DHT22;52783;50.502;8.190;2023-08-01T06:50:35;16.90;99.90
66013;DHT22;52783;50.502;8.190;2023-08-01T06:53:01;17.00;99.90
66013;DHT22;52783;50.502;8.190;2023-08-01T06:55:26;17.20;99.90
66013;DHT22;52783;50.502;8.190;2023-08-01T06:57:52;17.30;99.90
66013;DHT22;52783;50.502;8.190;2023-08-01T07:00:17;17.30;99.90
66013;DHT22;52783;50.502;8.190;2023-08-01T07:02:43;17.40;99.90
66013;DHT22;52783;50.502;8.190;2023-08-01T07:05:09;17.50;99.90
66013;DHT22;52783;50.502;8.190;2023-08-01T07:07:34;17.40;99.90
66013;DHT22;52783;50.502;8.190;2023-08-01T07:10:00;17.50;99.90
66013;DHT22;52783;50.502;8.190;2023-08-01T07:12:25;17.60;99.90
66013;DHT22;52783;50.502;8.190;2023-08-01T07:14:51;17.80;99.90
66013;DHT22;52783;50.502;8.190;2023-08-01T07:17:17;18.60;99.90
66013;DHT22;52783;50.502;8.190;2023-08-01T07:19:42;18.70;99.90
66013;DHT22;52783;50.502;8.190;2023-08-01T07:22:08;18.80;99.90
66013;DHT22;52783;50.502;8.190;2023-08-01T07:24:34;18.80;99.90
66013;DHT22;52783;50.502;8.190;2023-08-01T07:26:59;18.60;99.90
66013;DHT22;52783;50.502;8.190;2023-08-01T07:29:25;18.40;99.90
66013;DHT22;52783;50.502;8.190;2023-08-01T07:31:50;18.50;99.90
66013;DHT22;52783;50.502;8.190;2023-08-01T07:34:16;18.70;99.90
66013;DHT22;52783;50.502;8.190;2023-08-01T07:36:42;19.50;99.90
66013;DHT22;52783;50.502;8.190;2023-08-01T07:39:07;19.70;99.90
66013;DHT22;52783;50.502;8.190;2023-08-01T07:41:33;19.80;99.90
66013;DHT22;52783;50.502;8.190;2023-08-01T07:44:01;19.70;99.90
66013;DHT22;52783;50.502;8.190;2023-08-01T07:46:27;19.40;99.90
66013;DHT22;52783;50.502;8.190;2023-08-01T07:48:53;19.40;99.90
66013;DHT22;52783;50.502;8.190;2023-08-01T07:51:19;19.40;99.90
66013;DHT22;52783;50.502;8.190;2023-08-01T07:53:45;19.30;99.90
66013;DHT22;52783;50.502;8.190;2023-08-01T07:56:10;19.00;99.90
66013;DHT22;52783;50.502;8.190;2023-08-01T07:58:36;19.10;99.90
66013;DHT22;52783;50.502;8.190;2023-08-01T08:01:05;19.50;99.90
66013;DHT22;52783;50.502;8.190;2023-08-01T08:03:31;19.30;99.90
66013;DHT22;52783;50.502;8.190;2023-08-01T08:05:57;19.60;99.90
66013;DHT22;52783;50.502;8.190;2023-08-01T08:08:23;20.00;99.90
66013;DHT22;52783;50.502;8.190;2023-08-01T08:10:49;20.40;99.90
66013;DHT22;52783;50.502;8.190;2023-08-01T08:13:14;20.70;99.90
66013;DHT22;52783;50.502;8.190;2023-08-01T08:15:40;20.70;99.90
66013;DHT22;52783;50.502;8.190;2023-08-01T08:18:05;20.20;99.90
66013;DHT22;52783;50.502;8.190;2023-08-01T08:20:40;19.90;99.90
66013;DHT22;52783;50.502;8.190;2023-08-01T08:23:06;20.60;99.90
66013;DHT22;52783;50.502;8.190;2023-08-01T08:25:32;21.10;99.90
66013;DHT22;52783;50.502;8.190;2023-08-01T08:27:57;21.80;99.90
66013;DHT22;52783;50.502;8.190;2023-08-01T08:30:23;22.60;99.90
66013;DHT22;52783;50.502;8.190;2023-08-01T08:32:48;23.50;99.90
66013;DHT22;52783;50.502;8.190;2023-08-01T08:35:14;23.10;99.90
66013;DHT22;52783;50.502;8.190;2023-08-01T08:37:39;22.00;99.90
66013;DHT22;52783;50.502;8.190;2023-08-01T08:40:05;22.30;99.90
66013;DHT22;52783;50.502;8.190;2023-08-01T08:42:33;22.00;99.90
66013;DHT22;52783;50.502;8.190;2023-08-01T08:45:01;21.60;99.90
66013;DHT22;52783;50.502;8.190;2023-08-01T08:47:28;21.20;99.90
66013;DHT22;52783;50.502;8.190;2023-08-01T08:49:55;20.50;99.90
66013;DHT22;52783;50.502;8.190;2023-08-01T08:52:24;20.10;99.90
66013;DHT22;52783;50.502;8.190;2023-08-01T08:54:50;19.40;99.90
66013;DHT22;52783;50.502;8.190;2023-08-01T08:57:16;19.10;99.90
66013;DHT22;52783;50.502;8.190;2023-08-01T08:59:43;19.00;99.90
66013;DHT22;52783;50.502;8.190;2023-08-01T09:02:09;18.70;99.90
66013;DHT22;52783;50.502;8.190;2023-08-01T09:04:34;18.70;99.90
66013;DHT22;52783;50.502;8.190;2023-08-01T09:07:02;19.00;99.90
66013;DHT22;52783;50.502;8.190;2023-08-01T09:09:31;19.30;99.90
66013;DHT22;52783;50.502;8.190;2023-08-01T09:11:58;19.30;99.90
66013;DHT22;52783;50.502;8.190;2023-08-01T09:14:24;19.10;99.90
66013;DHT22;52783;50.502;8.190;2023-08-01T09:16:49;19.10;99.90
66013;DHT22;52783;50.502;8.190;2023-08-01T09:19:19;18.90;99.90
66013;DHT22;52783;50.502;8.190;2023-08-01T09:21:45;18.50;99.90
66013;DHT22;52783;50.502;8.190;2023-08-01T09:24:13;18.30;99.90
66013;DHT22;52783;50.502;8.190;2023-08-01T09:26:39;18.20;99.90
66013;DHT22;52783;50.502;8.190;2023-08-01T09:29:06;17.80;99.90
66013;DHT22;52783;50.502;8.190;2023-08-01T09:31:34;18.00;99.90
66013;DHT22;52783;50.502;8.190;2023-08-01T09:34:01;18.00;99.90
66013;DHT22;52783;50.502;8.190;2023-08-01T09:36:27;18.40;99.90
66013;DHT22;52783;50.502;8.190;2023-08-01T09:39:01;18.30;99.90
66013;DHT22;52783;50.502;8.190;2023-08-01T09:41:28;18.40;99.90
66013;DHT22;52783;50.502;8.190;2023-08-01T09:43:54;18.50;99.90
66013;DHT22;52783;50.502;8.190;2023-08-01T09:46:19;18.70;99.90
66013;DHT22;52783;50.502;8.190;2023-08-01T09:48:45;18.90;99.90
66013;DHT22;52783;50.502;8.190;2023-08-01T09:51:12;19.40;99.90
66013;DHT22;52783;50.502;8.190;2023-08-01T09:58:47;20.90;99.90
66013;DHT22;52783;50.502;8.190;2023-08-01T10:01:17;21.70;99.90
66013;DHT22;52783;50.502;8.190;2023-08-01T10:03:47;21.50;99.90
66013;DHT22;52783;50.502;8.190;2023-08-01T10:06:23;21.50;99.90
66013;DHT22;52783;50.502;8.190;2023-08-01T10:08:51;21.00;99.90
66013;DHT22;52783;50.502;8.190;2023-08-01T10:11:19;20.50;99.90
66013;DHT22;52783;50.502;8.190;2023-08-01T10:13:45;20.50;99.90
66013;DHT22;52783;50.502;8.190;2023-08-01T10:16:12;20.50;99.90
66013;DHT22;52783;50.502;8.190;2023-08-01T10:18:38;20.10;99.90
66013;DHT22;52783;50.502;8.190;2023-08-01T10:21:15;20.10;99.90
66013;DHT22;52783;50.502;8.190;2023-08-01T10:23:42;21.50;99.90
66013;DHT22;52783;50.502;8.190;2023-08-01T10:26:09;21.10;99.90
66013;DHT22;52783;50.502;8.190;2023-08-01T10:28:37;21.30;99.90
66013;DHT22;52783;50.502;8.190;2023-08-01T10:31:11;21.70;99.90
66013;DHT22;52783;50.502;8.190;2023-08-01T10:33:38;21.70;99.90
66013;DHT22;52783;50.502;8.190;2023-08-01T10:36:17;21.90;99.90
66013;DHT22;52783;50.502;8.190;2023-08-01T10:38:51;21.60;99.90
66013;DHT22;52783;50.502;8.190;2023-08-01T10:44:04;21.70;99.90
66013;DHT22;52783;50.502;8.190;2023-08-01T10:47:00;21.40;99.90
66013;DHT22;52783;50.502;8.190;2023-08-01T10:49:43;21.20;99.90
66013;DHT22;52783;50.502;8.190;2023-08-01T10:52:17;21.00;99.90
66013;DHT22;52783;50.502;8.190;2023-08-01T10:54:43;21.30;99.90
66013;DHT22;52783;50.502;8.190;2023-08-01T10:57:15;21.70;99.90
66013;DHT22;52783;50.502;8.190;2023-08-01T10:59:42;22.00;99.90
66013;DHT22;52783;50.502;8.190;2023-08-01T11:02:08;21.60;99.90
66013;DHT22;52783;50.502;8.190;2023-08-01T11:04:33;21.50;99.90
66013;DHT22;52783;50.502;8.190;2023-08-01T11:06:59;21.70;99.90
66013;DHT22;52783;50.502;8.190;2023-08-01T11:09:26;21.80;99.90
66013;DHT22;52783;50.502;8.190;2023-08-01T11:11:59;21.50;99.90
66013;DHT22;52783;50.502;8.190;2023-08-01T11:14:27;21.40;99.90
66013;DHT22;52783;50.502;8.190;2023-08-01T11:16:56;21.00;99.90
66013;DHT22;52783;50.502;8.190;2023-08-01T11:19:28;20.40;99.90
66013;DHT22;52783;50.502;8.190;2023-08-01T11:21:55;19.80;99.90
66013;DHT22;52783;50.502;8.190;2023-08-01T11:24:25;20.00;99.90
66013;DHT22;52783;50.502;8.190;2023-08-01T11:26:53;20.00;99.90
66013;DHT22;52783;50.502;8.190;2023-08-01T11:29:19;19.70;99.90
66013;DHT22;52783;50.502;8.190;2023-08-01T11:32:00;19.50;99.90
66013;DHT22;52783;50.502;8.190;2023-08-01T11:34:26;19.70;99.90
66013;DHT22;52783;50.502;8.190;2023-08-01T11:36:52;19.60;99.90
66013;DHT22;52783;50.502;8.190;2023-08-01T11:39:18;19.70;99.90
66013;DHT22;52783;50.502;8.190;2023-08-01T11:41:44;19.90;99.90
66013;DHT22;52783;50.502;8.190;2023-08-01T11:44:10;20.40;99.90
66013;DHT22;52783;50.502;8.190;2023-08-01T11:46:37;20.60;99.90
66013;DHT22;52783;50.502;8.190;2023-08-01T11:49:05;20.50;99.90
66013;DHT22;52783;50.502;8.190;2023-08-01T11:51:39;20.40;99.90
66013;DHT22;52783;50.502;8.190;2023-08-01T11:54:05;20.40;99.90
66013;DHT22;52783;50.502;8.190;2023-08-01T11:56:33;20.50;99.90
66013;DHT22;52783;50.502;8.190;2023-08-01T11:58:58;20.30;99.90
66013;DHT22;52783;50.502;8.190;2023-08-01T12:01:25;20.30;99.90
66013;DHT22;52783;50.502;8.190;2023-08-01T12:03:52;20.50;99.90
66013;DHT22;52783;50.502;8.190;2023-08-01T12:06:20;20.70;99.90
66013;DHT22;52783;50.502;8.190;2023-08-01T12:08:48;20.50;99.90
66013;DHT22;52783;50.502;8.190;2023-08-01T12:11:27;20.50;99.90
66013;DHT22;52783;50.502;8.190;2023-08-01T12:14:09;20.70;99.90
66013;DHT22;52783;50.502;8.190;2023-08-01T12:16:36;20.40;99.90
66013;DHT22;52783;50.502;8.190;2023-08-01T12:19:02;20.60;99.90
66013;DHT22;52783;50.502;8.190;2023-08-01T12:21:28;21.00;99.90
66013;DHT22;52783;50.502;8.190;2023-08-01T12:23:54;20.90;99.90
66013;DHT22;52783;50.502;8.190;2023-08-01T12:26:19;21.10;99.90
66013;DHT22;52783;50.502;8.190;2023-08-01T12:28:45;21.10;99.90
66013;DHT22;52783;50.502;8.190;2023-08-01T12:31:16;21.40;99.90
66013;DHT22;52783;50.502;8.190;2023-08-01T12:33:41;21.40;99.90
66013;DHT22;52783;50.502;8.190;2023-08-01T12:36:07;21.50;99.90
66013;DHT22;52783;50.502;8.190;2023-08-01T12:38:32;21.50;99.90
66013;DHT22;52783;50.502;8.190;2023-08-01T12:40:58;21.50;99.90
66013;DHT22;52783;50.502;8.190;2023-08-01T12:43:23;21.20;99.90
66013;DHT22;52783;50.502;8.190;2023-08-01T12:45:49;21.40;99.90
66013;DHT22;52783;50.502;8.190;2023-08-01T12:48:14;21.50;99.90
66013;DHT22;52783;50.502;8.190;2023-08-01T12:50:46;21.40;99.90
66013;DHT22;52783;50.502;8.190;2023-08-01T12:53:13;21.00;99.90
66013;DHT22;52783;50.502;8.190;2023-08-01T12:55:42;20.80;99.90
66013;DHT22;52783;50.502;8.190;2023-08-01T12:58:07;20.40;99.90
66013;DHT22;52783;50.502;8.190;2023-08-01T13:00:33;19.50;99.90
66013;DHT22;52783;50.502;8.190;2023-08-01T13:02:59;19.00;99.90
66013;DHT22;52783;50.502;8.190;2023-08-01T13:05:24;18.70;99.90
66013;DHT22;52783;50.502;8.190;2023-08-01T13:07:50;18.90;99.90
66013;DHT22;52783;50.502;8.190;2023-08-01T13:10:16;18.60;99.90
66013;DHT22;52783;50.502;8.190;2023-08-01T13:12:41;18.90;99.90
66013;DHT22;52783;50.502;8.190;2023-08-01T13:15:07;19.20;99.90
66013;DHT22;52783;50.502;8.190;2023-08-01T13:17:34;19.40;99.90
66013;DHT22;52783;50.502;8.190;2023-08-01T13:19:59;19.10;99.90
66013;DHT22;52783;50.502;8.190;2023-08-01T13:22:25;18.90;99.90
66013;DHT22;52783;50.502;8.190;2023-08-01T13:24:50;19.10;99.90
66013;DHT22;52783;50.502;8.190;2023-08-01T13:27:16;19.30;99.90
66013;DHT22;52783;50.502;8.190;2023-08-01T13:29:41;19.40;99.90
66013;DHT22;52783;50.502;8.190;2023-08-01T13:32:07;19.60;99.90
66013;DHT22;52783;50.502;8.190;2023-08-01T13:34:33;19.70;99.90
66013;DHT22;52783;50.502;8.190;2023-08-01T13:36:58;19.80;99.90
66013;DHT22;52783;50.502;8.190;2023-08-01T13:39:24;19.80;99.90
66013;DHT22;52783;50.502;8.190;2023-08-01T13:41:49;20.00;99.90
66013;DHT22;52783;50.502;8.190;2023-08-01T13:44:15;19.80;99.90
66013;DHT22;52783;50.502;8.190;2023-08-01T13:46:40;19.90;99.90
66013;DHT22;52783;50.502;8.190;2023-08-01T13:49:06;20.10;99.90
66013;DHT22;52783;50.502;8.190;2023-08-01T13:51:33;20.20;99.90
66013;DHT22;52783;50.502;8.190;2023-08-01T13:53:58;20.20;99.90
66013;DHT22;52783;50.502;8.190;2023-08-01T13:56:24;20.10;99.90
66013;DHT22;52783;50.502;8.190;2023-08-01T13:58:51;20.30;99.90
66013;DHT22;52783;50.502;8.190;2023-08-01T14:01:17;20.40;99.90
66013;DHT22;52783;50.502;8.190;2023-08-01T14:03:44;20.30;99.90
66013;DHT22;52783;50.502;8.190;2023-08-01T14:06:12;20.20;99.90
66013;DHT22;52783;50.502;8.190;2023-08-01T14:08:38;20.00;99.90
66013;DHT22;52783;50.502;8.190;2023-08-01T14:11:06;19.90;99.90
66013;DHT22;52783;50.502;8.190;2023-08-01T14:13:32;19.90;99.90
66013;DHT22;52783;50.502;8.190;2023-08-01T14:15:59;20.00;99.90
66013;DHT22;52783;50.502;8.190;2023-08-01T14:18:25;19.90;99.90
66013;DHT22;52783;50.502;8.190;2023-08-01T14:20:51;20.10;99.90
66013;DHT22;52783;50.502;8.190;2023-08-01T14:23:16;19.90;99.90
66013;DHT22;52783;50.502;8.190;2023-08-01T14:25:42;20.00;99.90
66013;DHT22;52783;50.502;8.190;2023-08-01T14:28:09;20.10;99.90
66013;DHT22;52783;50.502;8.190;2023-08-01T14:30:34;20.20;99.90
66013;DHT22;52783;50.502;8.190;2023-08-01T14:35:26;20.30;99.90
66013;DHT22;52783;50.502;8.190;2023-08-01T14:37:51;20.20;99.90
66013;DHT22;52783;50.502;8.190;2023-08-01T14:40:17;20.30;99.90
66013;DHT22;52783;50.502;8.190;2023-08-01T14:42:42;20.20;99.90
66013;DHT22;52783;50.502;8.190;2023-08-01T14:45:08;20.30;99.90
66013;DHT22;52783;50.502;8.190;2023-08-01T14:47:34;20.40;99.90
66013;DHT22;52783;50.502;8.190;2023-08-01T14:50:00;20.20;99.90
66013;DHT22;52783;50.502;8.190;2023-08-01T14:52:25;20.50;99.90
66013;DHT22;52783;50.502;8.190;2023-08-01T14:54:51;20.40;99.90
66013;DHT22;52783;50.502;8.190;2023-08-01T14:57:16;20.50;99.90
66013;DHT22;52783;50.502;8.190;2023-08-01T14:59:42;20.50;99.90
66013;DHT22;52783;50.502;8.190;2023-08-01T15:02:07;20.40;99.90
66013;DHT22;52783;50.502;8.190;2023-08-01T15:04:33;20.50;99.90
66013;DHT22;52783;50.502;8.190;2023-08-01T15:07:01;20.60;99.90
66013;DHT22;52783;50.502;8.190;2023-08-01T15:09:26;20.60;99.90
66013;DHT22;52783;50.502;8.190;2023-08-01T15:11:52;20.70;99.90
66013;DHT22;52783;50.502;8.190;2023-08-01T15:14:17;21.00;99.90
66013;DHT22;52783;50.502;8.190;2023-08-01T15:16:43;21.20;99.90
66013;DHT22;52783;50.502;8.190;2023-08-01T15:19:09;21.00;99.90
66013;DHT22;52783;50.502;8.190;2023-08-01T15:21:34;20.90;99.90
66013;DHT22;52783;50.502;8.190;2023-08-01T15:24:00;20.70;99.90
66013;DHT22;52783;50.502;8.190;2023-08-01T15:26:26;20.70;99.90
66013;DHT22;52783;50.502;8.190;2023-08-01T15:28:51;20.80;99.90
66013;DHT22;52783;50.502;8.190;2023-08-01T15:31:17;20.70;99.90
66013;DHT22;52783;50.502;8.190;2023-08-01T15:33:42;20.40;99.90
66013;DHT22;52783;50.502;8.190;2023-08-01T15:36:08;20.50;99.90
66013;DHT22;52783;50.502;8.190;2023-08-01T15:38:36;20.50;99.90